sensor_id;sensor_type;location;lat;lon;timestamp;P1;durP1;ratioP1;P2;durP2;ratioP2
6791;SDS011;3433;48.730;9.108;2023-11-22T00:01:40;11.37;;;7.53;;
6791;SDS011;3433;48.730;9.108;2023-11-22T00:04:28;16.13;;;7.47;;
6791;SDS011;3433;48.730;9.108;2023-11-22T00:07:15;12.20;;;8.00;;
6791;SDS011;3433;48.730;9.108;2023-11-22T00:10:02;11.37;;;7.57;;
6791;SDS011;3433;48.730;9.108;2023-11-22T00:12:50;13.10;;;8.53;;
6791;SDS011;3433;48.730;9.108;2023-11-22T00:15:38;13.07;;;8.33;;
6791;SDS011;3433;48.730;9.108;2023-11-22T00:18:25;12.47;;;7.93;;
6791;SDS011;3433;48.730;9.108;2023-11-22T00:21:13;10.63;;;6.33;;
6791;SDS011;3433;48.730;9.108;2023-11-22T00:24:00;6.77;;;4.37;;
6791;SDS011;3433;48.730;9.108;2023-11-22T00:26:47;3.40;;;2.80;;
6791;SDS011;3433;48.730;9.108;2023-11-22T00:29:34;3.03;;;2.70;;
6791;SDS011;3433;48.730;9.108;2023-11-22T00:32:23;2.63;;;2.43;;
6791;SDS011;3433;48.730;9.108;2023-11-22T00:35:11;3.07;;;2.40;;
6791;SDS011;3433;48.730;9.108;2023-11-22T00:37:58;4.83;;;3.60;;
6791;SDS011;3433;48.730;9.108;2023-11-22T00:40:45;4.43;;;3.73;;
6791;SDS011;3433;48.730;9.108;2023-11-22T00:43:32;4.30;;;3.60;;
6791;SDS011;3433;48.730;9.108;2023-11-22T00:46:19;4.90;;;3.20;;
6791;SDS011;3433;48.730;9.108;2023-11-22T00:49:08;3.90;;;3.50;;
6791;SDS011;3433;48.730;9.108;2023-11-22T00:51:55;5.30;;;3.87;;
6791;SDS011;3433;48.730;9.108;2023-11-22T00:54:42;5.70;;;4.37;;
6791;SDS011;3433;48.730;9.108;2023-11-22T00:57:29;4.30;;;3.90;;
6791;SDS011;3433;48.730;9.108;2023-11-22T01:00:17;5.07;;;4.10;;
6791;SDS011;3433;48.730;9.108;2023-11-22T01:03:04;5.50;;;4.03;;
6791;SDS011;3433;48.730;9.108;2023-11-22T01:05:52;5.30;;;3.90;;
6791;SDS011;3433;48.730;9.108;2023-11-22T01:08:40;6.50;;;4.30;;
6791;SDS011;3433;48.730;9.108;2023-11-22T01:11:27;5.43;;;4.20;;
6791;SDS011;3433;48.730;9.108;2023-11-22T01:14:14;6.10;;;5.13;;
6791;SDS011;3433;48.730;9.108;2023-11-22T01:17:01;6.53;;;4.70;;
6791;SDS011;3433;48.730;9.108;2023-11-22T01:19:48;5.70;;;4.17;;
6791;SDS011;3433;48.730;9.108;2023-11-22T01:22:37;8.33;;;4.80;;
6791;SDS011;3433;48.730;9.108;2023-11-22T01:25:24;6.50;;;4.20;;
6791;SDS011;3433;48.730;9.108;2023-11-22T01:28:11;6.60;;;5.03;;
6791;SDS011;3433;48.730;9.108;2023-11-22T01:30:58;8.57;;;5.67;;
6791;SDS011;3433;48.730;9.108;2023-11-22T01:33:46;8.00;;;5.43;;
6791;SDS011;3433;48.730;9.108;2023-11-22T01:36:33;6.23;;;4.60;;
6791;SDS011;3433;48.730;9.108;2023-11-22T01:39:21;6.97;;;5.27;;
6791;SDS011;3433;48.730;9.108;2023-11-22T01:42:09;6.73;;;4.50;;
6791;SDS011;3433;48.730;9.108;2023-11-22T01:44:56;5.70;;;4.60;;
6791;SDS011;3433;48.730;9.108;2023-11-22T01:47:43;12.90;;;4.87;;
6791;SDS011;3433;48.730;9.108;2023-11-22T01:50:31;5.90;;;4.30;;
6791;SDS011;3433;48.730;9.108;2023-11-22T01:53:18;7.17;;;4.57;;
6791;SDS011;3433;48.730;9.108;2023-11-22T01:56:08;5.60;;;4.50;;
6791;SDS011;3433;48.730;9.108;2023-11-22T01:58:56;7.07;;;5.30;;
6791;SDS011;3433;48.730;9.108;2023-11-22T02:01:44;8.17;;;5.40;;
6791;SDS011;3433;48.730;9.108;2023-11-22T02:04:32;7.80;;;4.50;;
6791;SDS011;3433;48.730;9.108;2023-11-22T02:07:19;7.20;;;4.90;;
6791;SDS011;3433;48.730;9.108;2023-11-22T02:10:06;5.67;;;4.17;;
6791;SDS011;3433;48.730;9.108;2023-11-22T02:12:56;6.97;;;5.00;;
6791;SDS011;3433;48.730;9.108;2023-11-22T02:15:44;6.50;;;4.63;;
6791;SDS011;3433;48.730;9.108;2023-11-22T02:18:32;5.13;;;4.17;;
6791;SDS011;3433;48.730;9.108;2023-11-22T02:21:19;8.93;;;5.20;;
6791;SDS011;3433;48.730;9.108;2023-11-22T02:24:08;9.10;;;4.60;;
6791;SDS011;3433;48.730;9.108;2023-11-22T02:26:55;6.40;;;4.33;;
6791;SDS011;3433;48.730;9.108;2023-11-22T02:29:42;9.47;;;4.60;;
6791;SDS011;3433;48.730;9.108;2023-11-22T02:32:30;5.77;;;4.17;;
6791;SDS011;3433;48.730;9.108;2023-11-22T02:35:18;5.97;;;3.57;;
6791;SDS011;3433;48.730;9.108;2023-11-22T02:38:05;6.07;;;4.23;;
6791;SDS011;3433;48.730;9.108;2023-11-22T02:40:54;5.20;;;3.93;;
6791;SDS011;3433;48.730;9.108;2023-11-22T02:43:41;5.50;;;3.97;;
6791;SDS011;3433;48.730;9.108;2023-11-22T02:46:28;5.30;;;3.83;;
6791;SDS011;3433;48.730;9.108;2023-11-22T02:49:16;7.30;;;4.83;;
6791;SDS011;3433;48.730;9.108;2023-11-22T02:52:03;5.40;;;4.20;;
6791;SDS011;3433;48.730;9.108;2023-11-22T02:54:51;7.63;;;4.40;;
6791;SDS011;3433;48.730;9.108;2023-11-22T02:57:40;6.03;;;4.20;;
6791;SDS011;3433;48.730;9.108;2023-11-22T03:00:27;5.77;;;4.53;;
6791;SDS011;3433;48.730;9.108;2023-11-22T03:03:14;5.67;;;4.20;;
6791;SDS011;3433;48.730;9.108;2023-11-22T03:06:02;10.93;;;4.77;;
6791;SDS011;3433;48.730;9.108;2023-11-22T03:08:50;7.67;;;4.17;;
6791;SDS011;3433;48.730;9.108;2023-11-22T03:11:37;7.20;;;5.07;;
6791;SDS011;3433;48.730;9.108;2023-11-22T03:14:26;6.50;;;4.63;;
6791;SDS011;3433;48.730;9.108;2023-11-22T03:17:14;7.60;;;4.47;;
6791;SDS011;3433;48.730;9.108;2023-11-22T03:20:01;7.60;;;4.60;;
6791;SDS011;3433;48.730;9.108;2023-11-22T03:22:49;6.70;;;4.70;;
6791;SDS011;3433;48.730;9.108;2023-11-22T03:25:36;9.43;;;4.63;;
6791;SDS011;3433;48.730;9.108;2023-11-22T03:28:23;11.47;;;5.53;;
6791;SDS011;3433;48.730;9.108;2023-11-22T03:31:12;7.50;;;5.60;;
6791;SDS011;3433;48.730;9.108;2023-11-22T03:33:59;8.17;;;5.40;;
6791;SDS011;3433;48.730;9.108;2023-11-22T03:36:46;6.13;;;4.60;;
6791;SDS011;3433;48.730;9.108;2023-11-22T03:39:34;7.30;;;4.83;;
6791;SDS011;3433;48.730;9.108;2023-11-22T03:42:21;7.27;;;4.60;;
6791;SDS011;3433;48.730;9.108;2023-11-22T03:45:08;5.57;;;4.40;;
6791;SDS011;3433;48.730;9.108;2023-11-22T03:47:59;10.10;;;5.17;;
6791;SDS011;3433;48.730;9.108;2023-11-22T03:50:46;9.27;;;4.60;;
6791;SDS011;3433;48.730;9.108;2023-11-22T03:53:34;8.00;;;5.47;;
6791;SDS011;3433;48.730;9.108;2023-11-22T03:56:21;7.07;;;4.73;;
6791;SDS011;3433;48.730;9.108;2023-11-22T03:59:08;11.20;;;5.30;;
6791;SDS011;3433;48.730;9.108;2023-11-22T04:01:55;7.23;;;5.50;;
6791;SDS011;3433;48.730;9.108;2023-11-22T04:04:44;10.93;;;5.30;;
6791;SDS011;3433;48.730;9.108;2023-11-22T04:07:31;8.13;;;5.10;;
6791;SDS011;3433;48.730;9.108;2023-11-22T04:10:19;9.10;;;5.43;;
6791;SDS011;3433;48.730;9.108;2023-11-22T04:13:06;7.73;;;5.47;;
6791;SDS011;3433;48.730;9.108;2023-11-22T04:15:53;13.37;;;6.10;;
6791;SDS011;3433;48.730;9.108;2023-11-22T04:18:41;7.60;;;5.30;;
6791;SDS011;3433;48.730;9.108;2023-11-22T04:21:30;9.90;;;5.73;;
6791;SDS011;3433;48.730;9.108;2023-11-22T04:24:17;9.23;;;5.40;;
6791;SDS011;3433;48.730;9.108;2023-11-22T04:27:04;8.87;;;5.57;;
6791;SDS011;3433;48.730;9.108;2023-11-22T04:29:51;7.90;;;5.17;;
6791;SDS011;3433;48.730;9.108;2023-11-22T04:32:38;10.40;;;5.60;;
6791;SDS011;3433;48.730;9.108;2023-11-22T04:35:26;7.40;;;5.20;;
6791;SDS011;3433;48.730;9.108;2023-11-22T04:38:14;8.97;;;4.93;;
6791;SDS011;3433;48.730;9.108;2023-11-22T04:41:01;8.63;;;5.63;;
6791;SDS011;3433;48.730;9.108;2023-11-22T04:43:48;10.20;;;6.50;;
6791;SDS011;3433;48.730;9.108;2023-11-22T04:46:36;8.97;;;4.80;;
6791;SDS011;3433;48.730;9.108;2023-11-22T04:49:23;8.97;;;5.10;;
6791;SDS011;3433;48.730;9.108;2023-11-22T04:52:10;9.53;;;5.63;;
6791;SDS011;3433;48.730;9.108;2023-11-22T04:54:58;7.07;;;5.00;;
6791;SDS011;3433;48.730;9.108;2023-11-22T04:57:46;9.60;;;5.63;;
6791;SDS011;3433;48.730;9.108;2023-11-22T05:00:33;11.10;;;5.53;;
6791;SDS011;3433;48.730;9.108;2023-11-22T05:03:21;7.77;;;5.03;;
6791;SDS011;3433;48.730;9.108;2023-11-22T05:06:09;9.17;;;5.17;;
6791;SDS011;3433;48.730;9.108;2023-11-22T05:08:59;6.97;;;4.50;;
6791;SDS011;3433;48.730;9.108;2023-11-22T05:11:48;6.00;;;4.83;;
6791;SDS011;3433;48.730;9.108;2023-11-22T05:14:35;5.50;;;4.30;;
6791;SDS011;3433;48.730;9.108;2023-11-22T05:17:22;6.80;;;5.13;;
6791;SDS011;3433;48.730;9.108;2023-11-22T05:20:09;11.13;;;5.57;;
6791;SDS011;3433;48.730;9.108;2023-11-22T05:22:57;7.20;;;5.40;;
6791;SDS011;3433;48.730;9.108;2023-11-22T05:25:44;7.10;;;5.37;;
6791;SDS011;3433;48.730;9.108;2023-11-22T05:28:33;5.27;;;4.60;;
6791;SDS011;3433;48.730;9.108;2023-11-22T05:31:20;6.00;;;4.63;;
6791;SDS011;3433;48.730;9.108;2023-11-22T05:34:08;5.67;;;4.30;;
6791;SDS011;3433;48.730;9.108;2023-11-22T05:36:55;7.27;;;5.40;;
6791;SDS011;3433;48.730;9.108;2023-11-22T05:39:42;7.30;;;4.93;;
6791;SDS011;3433;48.730;9.108;2023-11-22T05:42:30;6.37;;;4.97;;
6791;SDS011;3433;48.730;9.108;2023-11-22T05:45:19;6.53;;;3.80;;
6791;SDS011;3433;48.730;9.108;2023-11-22T05:48:06;6.73;;;5.10;;
6791;SDS011;3433;48.730;9.108;2023-11-22T05:50:53;6.70;;;4.40;;
6791;SDS011;3433;48.730;9.108;2023-11-22T05:53:40;8.23;;;5.17;;
6791;SDS011;3433;48.730;9.108;2023-11-22T05:56:27;7.73;;;5.40;;
6791;SDS011;3433;48.730;9.108;2023-11-22T05:59:15;6.13;;;4.57;;
6791;SDS011;3433;48.730;9.108;2023-11-22T06:02:03;8.17;;;5.40;;
6791;SDS011;3433;48.730;9.108;2023-11-22T06:04:51;8.60;;;5.60;;
6791;SDS011;3433;48.730;9.108;2023-11-22T06:07:38;15.10;;;5.63;;
6791;SDS011;3433;48.730;9.108;2023-11-22T06:10:25;6.90;;;4.93;;
6791;SDS011;3433;48.730;9.108;2023-11-22T06:13:12;8.33;;;5.20;;
6791;SDS011;3433;48.730;9.108;2023-11-22T06:16:00;7.37;;;5.00;;
6791;SDS011;3433;48.730;9.108;2023-11-22T06:18:49;9.63;;;5.87;;
6791;SDS011;3433;48.730;9.108;2023-11-22T06:21:36;6.87;;;5.07;;
6791;SDS011;3433;48.730;9.108;2023-11-22T06:24:24;7.50;;;5.17;;
6791;SDS011;3433;48.730;9.108;2023-11-22T06:27:11;6.20;;;4.67;;
6791;SDS011;3433;48.730;9.108;2023-11-22T06:29:58;6.40;;;4.10;;
6791;SDS011;3433;48.730;9.108;2023-11-22T06:32:45;5.37;;;4.13;;
6791;SDS011;3433;48.730;9.108;2023-11-22T06:35:34;8.93;;;4.60;;
6791;SDS011;3433;48.730;9.108;2023-11-22T06:38:21;7.57;;;5.20;;
6791;SDS011;3433;48.730;9.108;2023-11-22T06:41:08;7.07;;;4.70;;
6791;SDS011;3433;48.730;9.108;2023-11-22T06:43:56;5.20;;;4.23;;
6791;SDS011;3433;48.730;9.108;2023-11-22T06:46:44;8.37;;;4.70;;
6791;SDS011;3433;48.730;9.108;2023-11-22T06:49:31;5.90;;;4.03;;
6791;SDS011;3433;48.730;9.108;2023-11-22T06:52:20;6.03;;;4.47;;
6791;SDS011;3433;48.730;9.108;2023-11-22T06:55:07;8.40;;;4.90;;
6791;SDS011;3433;48.730;9.108;2023-11-22T06:57:56;8.03;;;5.00;;
6791;SDS011;3433;48.730;9.108;2023-11-22T07:00:43;7.30;;;4.57;;
6791;SDS011;3433;48.730;9.108;2023-11-22T07:03:30;7.63;;;4.60;;
6791;SDS011;3433;48.730;9.108;2023-11-22T07:06:17;6.87;;;4.27;;
6791;SDS011;3433;48.730;9.108;2023-11-22T07:09:06;7.60;;;4.40;;
6791;SDS011;3433;48.730;9.108;2023-11-22T07:11:55;5.13;;;4.10;;
6791;SDS011;3433;48.730;9.108;2023-11-22T07:14:44;5.93;;;4.17;;
6791;SDS011;3433;48.730;9.108;2023-11-22T07:17:35;5.80;;;4.20;;
6791;SDS011;3433;48.730;9.108;2023-11-22T07:20:24;5.77;;;4.00;;
6791;SDS011;3433;48.730;9.108;2023-11-22T07:23:12;5.10;;;3.47;;
6791;SDS011;3433;48.730;9.108;2023-11-22T07:26:02;14.93;;;4.03;;
6791;SDS011;3433;48.730;9.108;2023-11-22T07:28:51;5.13;;;3.20;;
6791;SDS011;3433;48.730;9.108;2023-11-22T07:31:38;6.87;;;3.70;;
6791;SDS011;3433;48.730;9.108;2023-11-22T07:34:28;3.87;;;3.10;;
6791;SDS011;3433;48.730;9.108;2023-11-22T07:37:15;4.63;;;3.77;;
6791;SDS011;3433;48.730;9.108;2023-11-22T07:40:03;5.27;;;3.33;;
6791;SDS011;3433;48.730;9.108;2023-11-22T07:42:57;6.40;;;3.33;;
6791;SDS011;3433;48.730;9.108;2023-11-22T07:45:45;6.83;;;3.10;;
6791;SDS011;3433;48.730;9.108;2023-11-22T07:48:34;7.27;;;3.10;;
6791;SDS011;3433;48.730;9.108;2023-11-22T07:51:23;4.03;;;3.00;;
6791;SDS011;3433;48.730;9.108;2023-11-22T07:54:10;6.10;;;3.13;;
6791;SDS011;3433;48.730;9.108;2023-11-22T07:57:00;4.23;;;3.00;;
6791;SDS011;3433;48.730;9.108;2023-11-22T07:59:49;4.63;;;3.20;;
6791;SDS011;3433;48.730;9.108;2023-11-22T08:02:40;5.13;;;3.20;;
6791;SDS011;3433;48.730;9.108;2023-11-22T08:05:28;3.67;;;2.97;;
6791;SDS011;3433;48.730;9.108;2023-11-22T08:08:19;4.47;;;3.60;;
6791;SDS011;3433;48.730;9.108;2023-11-22T08:11:07;5.20;;;3.00;;
6791;SDS011;3433;48.730;9.108;2023-11-22T08:14:00;4.03;;;3.03;;
6791;SDS011;3433;48.730;9.108;2023-11-22T08:16:49;4.90;;;3.77;;
6791;SDS011;3433;48.730;9.108;2023-11-22T08:19:36;4.90;;;3.50;;
6791;SDS011;3433;48.730;9.108;2023-11-22T08:22:25;4.80;;;3.60;;
6791;SDS011;3433;48.730;9.108;2023-11-22T08:25:14;8.10;;;3.57;;
6791;SDS011;3433;48.730;9.108;2023-11-22T08:28:02;9.57;;;4.30;;
6791;SDS011;3433;48.730;9.108;2023-11-22T08:30:50;6.37;;;3.00;;
6791;SDS011;3433;48.730;9.108;2023-11-22T08:33:39;5.70;;;3.23;;
6791;SDS011;3433;48.730;9.108;2023-11-22T08:36:26;3.47;;;3.07;;
6791;SDS011;3433;48.730;9.108;2023-11-22T08:39:16;6.00;;;3.57;;
6791;SDS011;3433;48.730;9.108;2023-11-22T08:42:05;4.93;;;3.47;;
6791;SDS011;3433;48.730;9.108;2023-11-22T08:44:55;4.20;;;3.10;;
6791;SDS011;3433;48.730;9.108;2023-11-22T08:47:43;7.33;;;4.00;;
6791;SDS011;3433;48.730;9.108;2023-11-22T08:50:33;5.43;;;3.70;;
6791;SDS011;3433;48.730;9.108;2023-11-22T08:53:20;6.70;;;3.53;;
6791;SDS011;3433;48.730;9.108;2023-11-22T08:56:08;6.17;;;4.30;;
6791;SDS011;3433;48.730;9.108;2023-11-22T08:58:56;6.47;;;4.10;;
6791;SDS011;3433;48.730;9.108;2023-11-22T09:01:44;5.77;;;3.90;;
6791;SDS011;3433;48.730;9.108;2023-11-22T09:04:32;7.30;;;3.80;;
6791;SDS011;3433;48.730;9.108;2023-11-22T09:07:20;10.73;;;5.00;;
6791;SDS011;3433;48.730;9.108;2023-11-22T09:10:09;8.13;;;4.63;;
6791;SDS011;3433;48.730;9.108;2023-11-22T09:12:58;6.10;;;3.70;;
6791;SDS011;3433;48.730;9.108;2023-11-22T09:15:46;6.47;;;3.80;;
6791;SDS011;3433;48.730;9.108;2023-11-22T09:18:33;6.87;;;4.20;;
6791;SDS011;3433;48.730;9.108;2023-11-22T09:21:20;8.90;;;4.90;;
6791;SDS011;3433;48.730;9.108;2023-11-22T09:24:09;8.80;;;3.63;;
6791;SDS011;3433;48.730;9.108;2023-11-22T09:26:58;6.07;;;4.00;;
6791;SDS011;3433;48.730;9.108;2023-11-22T09:29:50;5.70;;;4.00;;
6791;SDS011;3433;48.730;9.108;2023-11-22T09:32:39;8.83;;;3.80;;
6791;SDS011;3433;48.730;9.108;2023-11-22T09:35:27;5.20;;;3.53;;
6791;SDS011;3433;48.730;9.108;2023-11-22T09:38:16;7.40;;;3.50;;
6791;SDS011;3433;48.730;9.108;2023-11-22T09:41:09;6.37;;;4.50;;
6791;SDS011;3433;48.730;9.108;2023-11-22T09:43:57;6.83;;;4.23;;
6791;SDS011;3433;48.730;9.108;2023-11-22T09:46:44;11.03;;;3.90;;
6791;SDS011;3433;48.730;9.108;2023-11-22T09:49:34;5.00;;;3.73;;
6791;SDS011;3433;48.730;9.108;2023-11-22T09:52:22;7.00;;;3.90;;
6791;SDS011;3433;48.730;9.108;2023-11-22T09:55:14;4.70;;;3.63;;
6791;SDS011;3433;48.730;9.108;2023-11-22T09:58:07;9.87;;;4.43;;
6791;SDS011;3433;48.730;9.108;2023-11-22T10:00:55;7.43;;;4.40;;
6791;SDS011;3433;48.730;9.108;2023-11-22T10:03:43;7.67;;;4.70;;
6791;SDS011;3433;48.730;9.108;2023-11-22T10:06:32;8.43;;;5.17;;
6791;SDS011;3433;48.730;9.108;2023-11-22T10:09:21;8.13;;;5.07;;
6791;SDS011;3433;48.730;9.108;2023-11-22T10:12:10;8.10;;;5.07;;
6791;SDS011;3433;48.730;9.108;2023-11-22T10:15:12;7.63;;;5.97;;
6791;SDS011;3433;48.730;9.108;2023-11-22T10:18:01;8.37;;;4.57;;
6791;SDS011;3433;48.730;9.108;2023-11-22T10:20:50;7.50;;;4.87;;
6791;SDS011;3433;48.730;9.108;2023-11-22T10:23:38;7.20;;;5.03;;
6791;SDS011;3433;48.730;9.108;2023-11-22T10:26:27;9.57;;;5.50;;
6791;SDS011;3433;48.730;9.108;2023-11-22T10:29:15;7.77;;;5.43;;
6791;SDS011;3433;48.730;9.108;2023-11-22T10:32:06;8.70;;;5.10;;
6791;SDS011;3433;48.730;9.108;2023-11-22T10:34:54;7.73;;;5.23;;
6791;SDS011;3433;48.730;9.108;2023-11-22T10:37:41;9.57;;;5.30;;
6791;SDS011;3433;48.730;9.108;2023-11-22T10:40:31;9.07;;;5.60;;
6791;SDS011;3433;48.730;9.108;2023-11-22T10:43:19;8.40;;;5.30;;
6791;SDS011;3433;48.730;9.108;2023-11-22T10:46:08;7.10;;;4.90;;
6791;SDS011;3433;48.730;9.108;2023-11-22T10:48:58;8.80;;;5.43;;
6791;SDS011;3433;48.730;9.108;2023-11-22T10:51:46;11.00;;;5.70;;
6791;SDS011;3433;48.730;9.108;2023-11-22T10:54:38;13.33;;;6.80;;
6791;SDS011;3433;48.730;9.108;2023-11-22T10:57:40;11.37;;;5.80;;
6791;SDS011;3433;48.730;9.108;2023-11-22T11:00:32;13.60;;;8.17;;
6791;SDS011;3433;48.730;9.108;2023-11-22T11:03:22;9.83;;;6.53;;
6791;SDS011;3433;48.730;9.108;2023-11-22T11:06:18;8.67;;;5.40;;
6791;SDS011;3433;48.730;9.108;2023-11-22T11:09:12;15.70;;;8.23;;
6791;SDS011;3433;48.730;9.108;2023-11-22T11:12:04;11.03;;;7.33;;
6791;SDS011;3433;48.730;9.108;2023-11-22T11:14:53;10.83;;;7.27;;
6791;SDS011;3433;48.730;9.108;2023-11-22T11:17:41;10.50;;;6.17;;
6791;SDS011;3433;48.730;9.108;2023-11-22T11:20:32;9.03;;;5.87;;
6791;SDS011;3433;48.730;9.108;2023-11-22T11:23:33;10.63;;;6.97;;
6791;SDS011;3433;48.730;9.108;2023-11-22T11:26:20;11.83;;;7.77;;
6791;SDS011;3433;48.730;9.108;2023-11-22T11:29:08;8.70;;;6.13;;
6791;SDS011;3433;48.730;9.108;2023-11-22T11:32:29;9.43;;;6.03;;
6791;SDS011;3433;48.730;9.108;2023-11-22T11:35:18;11.27;;;6.33;;
6791;SDS011;3433;48.730;9.108;2023-11-22T11:38:27;13.07;;;6.93;;
6791;SDS011;3433;48.730;9.108;2023-11-22T11:41:23;12.77;;;6.90;;
6791;SDS011;3433;48.730;9.108;2023-11-22T11:44:12;10.00;;;6.20;;
6791;SDS011;3433;48.730;9.108;2023-11-22T11:46:59;10.57;;;6.80;;
6791;SDS011;3433;48.730;9.108;2023-11-22T11:49:55;9.03;;;6.00;;
6791;SDS011;3433;48.730;9.108;2023-11-22T11:52:43;10.20;;;6.00;;
6791;SDS011;3433;48.730;9.108;2023-11-22T11:55:31;13.43;;;6.63;;
6791;SDS011;3433;48.730;9.108;2023-11-22T11:58:21;10.97;;;6.20;;
6791;SDS011;3433;48.730;9.108;2023-11-22T12:01:09;9.13;;;6.30;;
6791;SDS011;3433;48.730;9.108;2023-11-22T12:04:00;10.17;;;6.67;;
6791;SDS011;3433;48.730;9.108;2023-11-22T12:06:48;10.83;;;6.23;;
6791;SDS011;3433;48.730;9.108;2023-11-22T12:09:36;10.00;;;6.00;;
6791;SDS011;3433;48.730;9.108;2023-11-22T12:12:24;6.97;;;5.00;;
6791;SDS011;3433;48.730;9.108;2023-11-22T12:15:13;9.03;;;5.90;;
6791;SDS011;3433;48.730;9.108;2023-11-22T12:18:00;9.43;;;6.17;;
6791;SDS011;3433;48.730;9.108;2023-11-22T12:20:55;10.77;;;6.77;;
6791;SDS011;3433;48.730;9.108;2023-11-22T12:23:43;13.80;;;8.97;;
6791;SDS011;3433;48.730;9.108;2023-11-22T12:26:33;9.50;;;6.23;;
6791;SDS011;3433;48.730;9.108;2023-11-22T12:29:20;13.23;;;6.97;;
6791;SDS011;3433;48.730;9.108;2023-11-22T12:32:12;9.13;;;5.40;;
6791;SDS011;3433;48.730;9.108;2023-11-22T12:35:03;10.60;;;6.90;;
6791;SDS011;3433;48.730;9.108;2023-11-22T12:37:52;10.80;;;6.53;;
6791;SDS011;3433;48.730;9.108;2023-11-22T12:40:43;11.83;;;6.10;;
6791;SDS011;3433;48.730;9.108;2023-11-22T12:43:32;11.13;;;6.00;;
6791;SDS011;3433;48.730;9.108;2023-11-22T12:46:20;10.90;;;7.07;;
6791;SDS011;3433;48.730;9.108;2023-11-22T12:49:09;8.20;;;6.50;;
6791;SDS011;3433;48.730;9.108;2023-11-22T12:51:56;9.23;;;6.07;;
6791;SDS011;3433;48.730;9.108;2023-11-22T12:54:43;9.77;;;6.17;;
6791;SDS011;3433;48.730;9.108;2023-11-22T12:57:33;9.23;;;6.30;;
6791;SDS011;3433;48.730;9.108;2023-11-22T13:00:20;9.20;;;6.03;;
6791;SDS011;3433;48.730;9.108;2023-11-22T13:03:07;7.63;;;6.10;;
6791;SDS011;3433;48.730;9.108;2023-11-22T13:05:57;9.50;;;6.27;;
6791;SDS011;3433;48.730;9.108;2023-11-22T13:08:44;9.90;;;5.57;;
6791;SDS011;3433;48.730;9.108;2023-11-22T13:11:32;8.73;;;5.77;;
6791;SDS011;3433;48.730;9.108;2023-11-22T13:14:19;11.73;;;6.30;;
6791;SDS011;3433;48.730;9.108;2023-11-22T13:17:06;12.00;;;6.07;;
6791;SDS011;3433;48.730;9.108;2023-11-22T13:19:56;8.97;;;6.40;;
6791;SDS011;3433;48.730;9.108;2023-11-22T13:22:44;11.03;;;6.53;;
6791;SDS011;3433;48.730;9.108;2023-11-22T13:25:32;9.13;;;6.00;;
6791;SDS011;3433;48.730;9.108;2023-11-22T13:28:19;8.13;;;6.00;;
6791;SDS011;3433;48.730;9.108;2023-11-22T13:31:07;10.70;;;6.63;;
6791;SDS011;3433;48.730;9.108;2023-11-22T13:33:55;11.77;;;6.77;;
6791;SDS011;3433;48.730;9.108;2023-11-22T13:36:42;11.17;;;7.20;;
6791;SDS011;3433;48.730;9.108;2023-11-22T13:39:32;9.63;;;6.63;;
6791;SDS011;3433;48.730;9.108;2023-11-22T13:42:19;9.20;;;5.97;;
6791;SDS011;3433;48.730;9.108;2023-11-22T13:45:07;11.33;;;6.23;;
6791;SDS011;3433;48.730;9.108;2023-11-22T13:47:55;12.00;;;6.77;;
6791;SDS011;3433;48.730;9.108;2023-11-22T13:50:48;13.43;;;6.70;;
6791;SDS011;3433;48.730;9.108;2023-11-22T13:53:36;10.27;;;6.40;;
6791;SDS011;3433;48.730;9.108;2023-11-22T13:56:29;12.30;;;7.83;;
6791;SDS011;3433;48.730;9.108;2023-11-22T13:59:16;13.83;;;9.53;;
6791;SDS011;3433;48.730;9.108;2023-11-22T14:02:04;14.13;;;8.30;;
6791;SDS011;3433;48.730;9.108;2023-11-22T14:04:52;13.30;;;7.13;;
6791;SDS011;3433;48.730;9.108;2023-11-22T14:07:39;11.93;;;6.80;;
6791;SDS011;3433;48.730;9.108;2023-11-22T14:10:26;13.50;;;6.73;;
6791;SDS011;3433;48.730;9.108;2023-11-22T14:13:15;11.37;;;7.33;;
6791;SDS011;3433;48.730;9.108;2023-11-22T14:16:02;15.33;;;10.20;;
6791;SDS011;3433;48.730;9.108;2023-11-22T14:18:50;13.00;;;8.50;;
6791;SDS011;3433;48.730;9.108;2023-11-22T14:21:37;13.20;;;8.63;;
6791;SDS011;3433;48.730;9.108;2023-11-22T14:24:25;12.20;;;7.60;;
6791;SDS011;3433;48.730;9.108;2023-11-22T14:27:14;11.27;;;7.87;;
6791;SDS011;3433;48.730;9.108;2023-11-22T14:30:03;10.30;;;6.80;;
6791;SDS011;3433;48.730;9.108;2023-11-22T14:32:53;14.00;;;8.20;;
6791;SDS011;3433;48.730;9.108;2023-11-22T14:35:40;14.40;;;9.40;;
6791;SDS011;3433;48.730;9.108;2023-11-22T14:38:29;11.90;;;7.10;;
6791;SDS011;3433;48.730;9.108;2023-11-22T14:41:16;8.70;;;6.53;;
6791;SDS011;3433;48.730;9.108;2023-11-22T14:44:05;12.93;;;7.13;;
6791;SDS011;3433;48.730;9.108;2023-11-22T14:46:53;13.80;;;8.50;;
6791;SDS011;3433;48.730;9.108;2023-11-22T14:49:43;9.73;;;6.60;;
6791;SDS011;3433;48.730;9.108;2023-11-22T14:52:30;12.27;;;7.00;;
6791;SDS011;3433;48.730;9.108;2023-11-22T14:55:17;10.97;;;6.50;;
6791;SDS011;3433;48.730;9.108;2023-11-22T14:58:06;11.47;;;7.13;;
6791;SDS011;3433;48.730;9.108;2023-11-22T15:00:53;11.90;;;7.30;;
6791;SDS011;3433;48.730;9.108;2023-11-22T15:03:43;9.13;;;6.50;;
6791;SDS011;3433;48.730;9.108;2023-11-22T15:06:31;9.80;;;6.47;;
6791;SDS011;3433;48.730;9.108;2023-11-22T15:09:21;13.13;;;7.67;;
6791;SDS011;3433;48.730;9.108;2023-11-22T15:12:08;10.93;;;6.63;;
6791;SDS011;3433;48.730;9.108;2023-11-22T15:14:55;9.77;;;6.07;;
6791;SDS011;3433;48.730;9.108;2023-11-22T15:17:44;7.60;;;6.17;;
6791;SDS011;3433;48.730;9.108;2023-11-22T15:20:33;9.67;;;5.80;;
6791;SDS011;3433;48.730;9.108;2023-11-22T15:23:20;8.00;;;6.03;;
6791;SDS011;3433;48.730;9.108;2023-11-22T15:26:07;8.77;;;5.87;;
6791;SDS011;3433;48.730;9.108;2023-11-22T15:28:54;9.47;;;5.60;;
6791;SDS011;3433;48.730;9.108;2023-11-22T15:31:42;7.90;;;6.10;;
6791;SDS011;3433;48.730;9.108;2023-11-22T15:34:29;12.10;;;7.80;;
6791;SDS011;3433;48.730;9.108;2023-11-22T15:37:18;15.63;;;8.27;;
6791;SDS011;3433;48.730;9.108;2023-11-22T15:40:06;13.00;;;8.53;;
6791;SDS011;3433;48.730;9.108;2023-11-22T15:42:56;15.17;;;9.33;;
6791;SDS011;3433;48.730;9.108;2023-11-22T15:45:43;15.17;;;8.97;;
6791;SDS011;3433;48.730;9.108;2023-11-22T15:48:30;15.50;;;9.57;;
6791;SDS011;3433;48.730;9.108;2023-11-22T15:51:18;14.70;;;10.10;;
6791;SDS011;3433;48.730;9.108;2023-11-22T15:54:07;13.60;;;7.00;;
6791;SDS011;3433;48.730;9.108;2023-11-22T15:56:54;10.93;;;7.30;;
6791;SDS011;3433;48.730;9.108;2023-11-22T15:59:41;19.13;;;8.97;;
6791;SDS011;3433;48.730;9.108;2023-11-22T16:02:28;10.40;;;7.40;;
6791;SDS011;3433;48.730;9.108;2023-11-22T16:05:16;9.63;;;6.50;;
6791;SDS011;3433;48.730;9.108;2023-11-22T16:08:03;10.97;;;7.10;;
6791;SDS011;3433;48.730;9.108;2023-11-22T16:10:52;10.93;;;6.93;;
6791;SDS011;3433;48.730;9.108;2023-11-22T16:13:39;12.50;;;8.60;;
6791;SDS011;3433;48.730;9.108;2023-11-22T16:16:26;9.67;;;7.07;;
6791;SDS011;3433;48.730;9.108;2023-11-22T16:19:13;11.07;;;7.43;;
6791;SDS011;3433;48.730;9.108;2023-11-22T16:22:01;13.03;;;8.07;;
6791;SDS011;3433;48.730;9.108;2023-11-22T16:24:48;8.83;;;6.43;;
6791;SDS011;3433;48.730;9.108;2023-11-22T16:27:38;10.23;;;7.53;;
6791;SDS011;3433;48.730;9.108;2023-11-22T16:30:25;8.83;;;6.80;;
6791;SDS011;3433;48.730;9.108;2023-11-22T16:33:13;8.93;;;6.27;;
6791;SDS011;3433;48.730;9.108;2023-11-22T16:36:00;10.10;;;6.53;;
6791;SDS011;3433;48.730;9.108;2023-11-22T16:38:47;11.10;;;7.40;;
6791;SDS011;3433;48.730;9.108;2023-11-22T16:41:34;11.90;;;7.77;;
6791;SDS011;3433;48.730;9.108;2023-11-22T16:44:23;16.80;;;8.60;;
6791;SDS011;3433;48.730;9.108;2023-11-22T16:47:10;16.73;;;9.30;;
6791;SDS011;3433;48.730;9.108;2023-11-22T16:49:57;14.43;;;8.63;;
6791;SDS011;3433;48.730;9.108;2023-11-22T16:52:45;12.50;;;8.50;;
6791;SDS011;3433;48.730;9.108;2023-11-22T16:55:32;15.10;;;10.63;;
6791;SDS011;3433;48.730;9.108;2023-11-22T16:58:19;15.00;;;9.97;;
6791;SDS011;3433;48.730;9.108;2023-11-22T17:01:08;12.60;;;7.87;;
6791;SDS011;3433;48.730;9.108;2023-11-22T17:03:55;11.10;;;8.03;;
6791;SDS011;3433;48.730;9.108;2023-11-22T17:06:43;13.03;;;8.30;;
6791;SDS011;3433;48.730;9.108;2023-11-22T17:09:30;15.80;;;11.10;;
6791;SDS011;3433;48.730;9.108;2023-11-22T17:12:17;12.87;;;8.03;;
6791;SDS011;3433;48.730;9.108;2023-11-22T17:15:05;13.23;;;8.90;;
6791;SDS011;3433;48.730;9.108;2023-11-22T17:17:54;9.90;;;7.93;;
6791;SDS011;3433;48.730;9.108;2023-11-22T17:20:41;10.43;;;7.30;;